createdAt,value
2018-05-11T00:00:12.700Z,12.43
2018-05-11T00:02:40.121Z,12.93
2018-05-11T00:05:07.533Z,12.88
2018-05-11T00:07:34.962Z,12.55
2018-05-11T00:10:02.416Z,11.48
2018-05-11T00:12:29.881Z,12.55
2018-05-11T00:14:58.064Z,12.80
2018-05-11T00:17:26.381Z,12.30
2018-05-11T00:19:54.540Z,10.90
2018-05-11T00:22:22.731Z,12.23
2018-05-11T00:24:50.954Z,11.88
2018-05-11T00:27:18.376Z,11.40
2018-05-11T00:29:45.791Z,11.90
2018-05-11T00:32:13.209Z,12.68
2018-05-11T00:34:40.724Z,13.75
2018-05-11T00:37:08.153Z,12.63
2018-05-11T00:39:35.572Z,10.95
2018-05-11T00:42:02.999Z,12.15
2018-05-11T00:44:30.507Z,11.57
2018-05-11T00:46:57.934Z,12.55
2018-05-11T00:49:25.511Z,11.73
2018-05-11T00:51:53.636Z,8.57
2018-05-11T00:54:21.053Z,10.02
2018-05-11T00:56:48.475Z,11.15
2018-05-11T00:59:15.888Z,10.55
2018-05-11T01:01:43.311Z,9.93
2018-05-11T01:04:10.728Z,9.98
2018-05-11T01:06:38.146Z,11.57
2018-05-11T01:09:05.615Z,11.38
2018-05-11T01:11:33.029Z,9.60
2018-05-11T01:14:00.554Z,11.77
2018-05-11T01:16:27.968Z,11.27
2018-05-11T01:18:55.406Z,11.27
2018-05-11T01:21:22.865Z,11.02
2018-05-11T01:23:50.292Z,10.60
2018-05-11T01:26:17.720Z,11.25
2018-05-11T01:28:45.137Z,10.70
2018-05-11T01:31:12.561Z,11.48
2018-05-11T01:33:40.017Z,11.98
2018-05-11T01:36:07.433Z,12.43
2018-05-11T01:38:34.953Z,11.60
2018-05-11T01:41:02.429Z,11.38
2018-05-11T01:43:29.848Z,11.65
2018-05-11T01:45:57.373Z,11.00
2018-05-11T01:48:24.784Z,10.98
2018-05-11T01:50:52.204Z,11.35
2018-05-11T01:53:19.625Z,9.80
2018-05-11T01:55:47.046Z,9.68
2018-05-11T01:58:14.516Z,9.00
2018-05-11T02:00:42.676Z,8.60
2018-05-11T02:03:10.881Z,9.75
2018-05-11T02:05:38.301Z,10.02
2018-05-11T02:08:05.829Z,11.12
2018-05-11T02:10:33.294Z,8.77
2018-05-11T02:13:00.774Z,10.25
2018-05-11T02:15:28.204Z,8.93
2018-05-11T02:17:55.646Z,8.05
2018-05-11T02:20:23.060Z,8.63
2018-05-11T02:22:51.241Z,9.98
2018-05-11T02:25:19.452Z,9.65
2018-05-11T02:27:47.620Z,10.13
2018-05-11T02:30:15.796Z,9.73
2018-05-11T02:32:43.981Z,9.52
2018-05-11T02:35:12.169Z,10.00
2018-05-11T02:37:39.682Z,9.32
2018-05-11T02:40:07.840Z,10.18
2018-05-11T02:42:36.030Z,10.25
2018-05-11T02:45:04.204Z,9.85
2018-05-11T02:47:32.402Z,10.00
2018-05-11T02:50:00.608Z,9.00
2018-05-11T02:52:28.017Z,9.70
2018-05-11T02:54:55.437Z,9.38
2018-05-11T02:57:23.613Z,9.13
2018-05-11T02:59:51.822Z,9.25
2018-05-11T03:02:19.254Z,9.15
2018-05-11T03:04:46.660Z,9.80
2018-05-11T03:07:14.085Z,9.43
2018-05-11T03:09:41.498Z,9.63
2018-05-11T03:12:08.956Z,8.65
2018-05-11T03:14:36.378Z,9.98
2018-05-11T03:17:03.789Z,9.93
2018-05-11T03:19:31.213Z,9.05
2018-05-11T03:21:58.624Z,8.60
2018-05-11T03:24:26.113Z,8.18
2018-05-11T03:26:54.269Z,8.40
2018-05-11T03:29:22.461Z,9.13
2018-05-11T03:31:50.664Z,9.75
2018-05-11T03:34:18.085Z,9.50
2018-05-11T03:36:45.497Z,10.10
2018-05-11T03:39:12.916Z,12.40
2018-05-11T03:41:40.336Z,11.40
2018-05-11T03:44:07.767Z,10.60
2018-05-11T03:46:35.177Z,11.15
2018-05-11T03:49:02.762Z,10.75
2018-05-11T03:51:30.924Z,10.00
2018-05-11T03:53:59.113Z,9.10
2018-05-11T03:56:27.318Z,10.20
2018-05-11T03:58:54.741Z,9.63
2018-05-11T04:01:34.138Z,11.23
2018-05-11T04:04:13.510Z,10.00
2018-05-11T04:06:53.003Z,11.27
2018-05-11T04:09:20.515Z,11.43
2018-05-11T04:11:47.988Z,9.25
2018-05-11T04:14:15.403Z,8.00
2018-05-11T04:16:42.813Z,9.07
2018-05-11T04:19:10.299Z,8.95
2018-05-11T04:21:37.697Z,9.65
2018-05-11T04:24:05.124Z,9.40
2018-05-11T04:26:32.533Z,8.60
2018-05-11T04:28:59.965Z,8.82
2018-05-11T04:31:27.368Z,8.85
2018-05-11T04:33:54.805Z,8.27
2018-05-11T04:36:22.273Z,8.60
2018-05-11T04:38:49.692Z,8.70
2018-05-11T04:41:17.118Z,8.90
2018-05-11T04:43:44.538Z,8.65
2018-05-11T04:46:12.061Z,8.68
2018-05-11T04:48:39.481Z,10.65
2018-05-11T04:51:06.905Z,10.20
2018-05-11T04:53:34.324Z,13.90
2018-05-11T04:56:01.747Z,11.40
2018-05-11T04:58:29.174Z,10.23
2018-05-11T05:00:57.348Z,10.02
2018-05-11T05:03:24.862Z,9.88
2018-05-11T05:05:53.025Z,11.12
2018-05-11T05:08:21.213Z,10.60
2018-05-11T05:10:49.397Z,9.88
2018-05-11T05:13:17.586Z,11.73
2018-05-11T05:15:45.774Z,11.73
2018-05-11T05:18:13.960Z,10.50
2018-05-11T05:20:42.146Z,10.88
2018-05-11T05:23:10.329Z,12.85
2018-05-11T05:25:38.525Z,11.23
2018-05-11T05:28:06.702Z,10.55
2018-05-11T05:30:34.883Z,9.68
2018-05-11T05:33:03.083Z,12.68
2018-05-11T05:35:30.493Z,10.15
2018-05-11T05:37:57.904Z,10.60
2018-05-11T05:40:25.416Z,10.23
2018-05-11T05:42:52.821Z,11.70
2018-05-11T05:45:20.238Z,11.15
2018-05-11T05:47:47.656Z,10.20
2018-05-11T05:50:15.081Z,10.63
2018-05-11T05:52:42.497Z,10.68
2018-05-11T05:55:09.916Z,10.82
2018-05-11T05:57:37.329Z,11.07
2018-05-11T06:00:04.758Z,10.38
2018-05-11T06:02:32.257Z,9.55
2018-05-11T06:04:59.593Z,11.25
2018-05-11T06:07:27.009Z,11.43
2018-05-11T06:09:54.433Z,11.38
2018-05-11T06:12:21.854Z,11.52
2018-05-11T06:14:49.282Z,12.25
2018-05-11T06:17:16.750Z,12.43
2018-05-11T06:19:44.168Z,10.50
2018-05-11T06:22:11.593Z,11.12
2018-05-11T06:24:39.008Z,10.85
2018-05-11T06:27:06.427Z,11.15
2018-05-11T06:29:33.849Z,11.27
2018-05-11T06:32:01.369Z,11.63
2018-05-11T06:34:29.613Z,11.57
2018-05-11T06:36:57.016Z,13.35
2018-05-11T06:39:24.500Z,12.50
2018-05-11T06:41:52.656Z,13.80
2018-05-11T06:44:20.841Z,13.52
2018-05-11T06:46:49.030Z,13.40
2018-05-11T06:49:17.247Z,13.65
2018-05-11T06:51:44.657Z,13.10
2018-05-11T06:54:12.089Z,14.25
2018-05-11T06:56:39.501Z,14.65
2018-05-11T06:59:06.931Z,14.07
2018-05-11T07:01:34.418Z,13.85
2018-05-11T07:04:02.550Z,14.52
2018-05-11T07:06:30.757Z,13.62
2018-05-11T07:08:58.191Z,13.20
2018-05-11T07:11:25.701Z,14.32
2018-05-11T07:13:53.116Z,14.27
2018-05-11T07:16:20.542Z,13.95
2018-05-11T07:18:48.024Z,16.80
2018-05-11T07:21:15.432Z,14.68
2018-05-11T07:23:42.954Z,15.13
2018-05-11T07:26:11.210Z,14.32
2018-05-11T07:28:39.393Z,13.68
2018-05-11T07:31:07.581Z,13.60
2018-05-11T07:33:35.086Z,13.80
2018-05-11T07:36:03.263Z,13.40
2018-05-11T07:38:31.442Z,11.75
2018-05-11T07:40:59.750Z,12.35
2018-05-11T07:43:27.972Z,12.05
2018-05-11T07:45:55.377Z,11.18
2018-05-11T07:48:23.561Z,11.95
2018-05-11T07:50:51.782Z,11.50
2018-05-11T07:53:19.206Z,10.20
2018-05-11T07:55:46.717Z,9.45
2018-05-11T07:58:14.142Z,10.25
2018-05-11T08:00:41.552Z,9.52
2018-05-11T08:03:08.960Z,9.32
2018-05-11T08:05:36.397Z,8.98
2018-05-11T08:08:04.568Z,10.02
2018-05-11T08:10:32.051Z,8.38
2018-05-11T08:12:59.523Z,9.93
2018-05-11T08:15:26.996Z,7.50
2018-05-11T08:17:55.161Z,8.73
2018-05-11T08:20:23.374Z,9.70
2018-05-11T08:22:50.782Z,9.40
2018-05-11T08:25:18.322Z,9.90
2018-05-11T08:27:45.732Z,10.82
2018-05-11T08:30:13.254Z,10.55
2018-05-11T08:32:40.673Z,11.10
2018-05-11T08:35:08.101Z,11.00
2018-05-11T08:37:35.663Z,10.00
2018-05-11T08:40:03.849Z,11.30
2018-05-11T08:42:31.308Z,12.98
2018-05-11T08:44:58.795Z,13.52
2018-05-11T08:47:26.161Z,12.00
2018-05-11T08:49:53.588Z,13.30
2018-05-11T08:52:21.010Z,12.90
2018-05-11T08:54:48.468Z,13.32
2018-05-11T08:57:16.642Z,14.05
2018-05-11T08:59:44.823Z,12.07
2018-05-11T09:02:13.000Z,12.43
2018-05-11T09:04:41.193Z,11.90
2018-05-11T09:07:09.508Z,13.90
2018-05-11T09:09:37.681Z,13.30
2018-05-11T09:12:05.157Z,11.85
2018-05-11T09:14:32.649Z,12.82
2018-05-11T09:17:00.045Z,12.57
2018-05-11T09:19:27.471Z,11.15
2018-05-11T09:21:54.890Z,10.10
2018-05-11T09:24:22.333Z,13.30
2018-05-11T09:26:49.752Z,12.37
2018-05-11T09:29:17.960Z,13.02
2018-05-11T09:31:45.384Z,14.05
2018-05-11T09:34:12.911Z,12.90
2018-05-11T09:36:40.327Z,10.82
2018-05-11T09:39:07.742Z,10.80
2018-05-11T09:41:35.938Z,11.77
2018-05-11T09:44:04.113Z,11.57
2018-05-11T09:46:32.300Z,12.25
2018-05-11T09:49:00.485Z,12.80
2018-05-11T09:51:27.905Z,11.20
2018-05-11T09:53:55.356Z,12.40
2018-05-11T09:56:22.773Z,11.20
2018-05-11T09:58:50.188Z,12.13
2018-05-11T10:01:17.665Z,13.00
2018-05-11T10:03:45.133Z,10.98
2018-05-11T10:06:12.612Z,10.88
2018-05-11T10:08:40.022Z,9.95
2018-05-11T10:11:07.457Z,8.88
2018-05-11T10:13:34.919Z,9.25
2018-05-11T10:16:02.353Z,10.40
2018-05-11T10:18:30.546Z,12.02
2018-05-11T10:20:58.772Z,11.50
2018-05-11T10:23:26.190Z,10.35
2018-05-11T10:25:53.621Z,11.00
2018-05-11T10:28:21.029Z,9.90
2018-05-11T10:30:48.450Z,8.93
2018-05-11T10:33:15.868Z,10.38
2018-05-11T10:35:43.378Z,9.65
2018-05-11T10:38:10.869Z,11.30
2018-05-11T10:40:38.224Z,9.10
2018-05-11T10:43:05.661Z,9.85
2018-05-11T10:45:33.061Z,7.50
2018-05-11T10:48:00.473Z,8.90
2018-05-11T10:50:27.993Z,9.82
2018-05-11T10:52:55.424Z,9.05
2018-05-11T10:55:22.854Z,7.62
2018-05-11T10:57:50.269Z,8.65
2018-05-11T11:00:18.456Z,8.20
2018-05-11T11:02:46.636Z,8.20
2018-05-11T11:05:14.830Z,10.27
2018-05-11T11:07:43.013Z,9.73
2018-05-11T11:10:10.536Z,8.77
2018-05-11T11:12:37.948Z,8.88
2018-05-11T11:15:05.366Z,8.77
2018-05-11T11:17:32.782Z,8.95
2018-05-11T11:20:00.241Z,9.15
2018-05-11T11:22:27.634Z,8.45
2018-05-11T11:24:55.054Z,7.32
2018-05-11T11:27:22.465Z,8.15
2018-05-11T11:29:49.894Z,7.95
2018-05-11T11:32:17.385Z,8.57
2018-05-11T11:34:44.969Z,9.45
2018-05-11T11:37:13.085Z,8.75
2018-05-11T11:39:41.273Z,7.57
2018-05-11T11:42:08.799Z,8.73
2018-05-11T11:44:36.105Z,6.60
2018-05-11T11:47:04.294Z,6.40
2018-05-11T11:49:32.473Z,6.68
2018-05-11T11:52:00.958Z,7.05
2018-05-11T11:54:28.362Z,8.35
2018-05-11T11:56:55.921Z,8.43
2018-05-11T11:59:23.298Z,8.07
2018-05-11T12:01:50.804Z,7.75
2018-05-11T12:04:18.125Z,8.18
2018-05-11T12:06:45.554Z,7.80
2018-05-11T12:09:13.081Z,8.32
2018-05-11T12:11:40.502Z,8.18
2018-05-11T12:14:08.023Z,8.60
2018-05-11T12:16:35.482Z,9.38
2018-05-11T12:19:02.897Z,8.63
2018-05-11T12:21:30.333Z,9.35
2018-05-11T12:23:57.797Z,9.75
2018-05-11T12:26:25.284Z,10.13
2018-05-11T12:28:52.747Z,10.00
2018-05-11T12:31:20.917Z,7.90
2018-05-11T12:33:48.324Z,7.82
2018-05-11T12:36:15.768Z,8.38
2018-05-11T12:38:43.930Z,8.80
2018-05-11T12:41:12.131Z,9.05
2018-05-11T12:43:39.601Z,8.80
2018-05-11T12:46:07.024Z,9.50
2018-05-11T12:48:34.442Z,8.23
2018-05-11T12:51:01.869Z,7.85
2018-05-11T12:53:29.277Z,9.45
2018-05-11T12:55:56.705Z,10.35
2018-05-11T12:58:24.121Z,8.05
2018-05-11T13:00:51.554Z,10.55
2018-05-11T13:03:18.969Z,7.97
2018-05-11T13:05:46.440Z,8.80
2018-05-11T13:08:13.845Z,7.93
2018-05-11T13:10:41.374Z,8.20
2018-05-11T13:13:08.838Z,7.68
2018-05-11T13:15:36.309Z,8.68
2018-05-11T13:18:03.717Z,7.93
2018-05-11T13:20:31.149Z,8.75
2018-05-11T13:22:58.557Z,7.68
2018-05-11T13:25:25.977Z,9.15
2018-05-11T13:27:53.398Z,9.20
2018-05-11T13:30:20.900Z,8.85
2018-05-11T13:32:48.296Z,10.27
2018-05-11T13:35:15.712Z,9.98
2018-05-11T13:37:43.141Z,9.00
2018-05-11T13:40:10.549Z,11.07
2018-05-11T13:42:37.968Z,9.40
2018-05-11T13:45:05.446Z,8.52
2018-05-11T13:47:32.861Z,8.45
2018-05-11T13:50:00.292Z,10.15
2018-05-11T13:52:27.751Z,8.75
2018-05-11T13:54:55.223Z,7.37
2018-05-11T13:57:22.642Z,9.50
2018-05-11T13:59:50.052Z,8.50
2018-05-11T14:02:17.468Z,9.25
2018-05-11T14:04:44.919Z,8.60
2018-05-11T14:07:12.374Z,8.32
2018-05-11T14:09:39.785Z,8.38
2018-05-11T14:12:07.207Z,9.55
2018-05-11T14:14:34.616Z,8.82
2018-05-11T14:17:02.042Z,8.18
2018-05-11T14:19:29.456Z,9.00
2018-05-11T14:21:56.889Z,8.02
2018-05-11T14:24:24.297Z,9.85
2018-05-11T14:26:51.727Z,10.05
2018-05-11T14:29:19.189Z,8.70
2018-05-11T14:31:46.604Z,9.02
2018-05-11T14:34:14.022Z,8.68
2018-05-11T14:36:41.450Z,8.93
2018-05-11T14:39:08.965Z,9.98
2018-05-11T14:41:36.388Z,9.38
2018-05-11T14:44:03.801Z,9.40
2018-05-11T14:46:31.226Z,9.18
2018-05-11T14:48:58.640Z,8.95
2018-05-11T14:51:26.060Z,8.88
2018-05-11T14:53:53.473Z,8.57
2018-05-11T14:56:20.896Z,8.43
2018-05-11T14:58:48.334Z,7.82
2018-05-11T15:01:15.744Z,8.05
2018-05-11T15:03:43.162Z,7.87
2018-05-11T15:06:10.585Z,7.43
2018-05-11T15:08:37.997Z,7.25
2018-05-11T15:11:05.470Z,7.82
2018-05-11T15:13:32.885Z,8.13
2018-05-11T15:16:00.310Z,8.68
2018-05-11T15:18:27.733Z,8.32
2018-05-11T15:20:55.153Z,7.35
2018-05-11T15:23:22.564Z,7.53
2018-05-11T15:25:49.997Z,8.40
2018-05-11T15:28:17.404Z,7.80
2018-05-11T15:30:44.826Z,7.90
2018-05-11T15:33:12.241Z,7.70
2018-05-11T15:35:39.661Z,7.15
2018-05-11T15:38:07.085Z,6.85
2018-05-11T15:40:34.505Z,6.18
2018-05-11T15:43:01.918Z,7.00
2018-05-11T15:45:29.325Z,6.20
2018-05-11T15:47:56.748Z,7.50
2018-05-11T15:50:24.156Z,6.70
2018-05-11T15:52:52.336Z,6.72
2018-05-11T15:55:20.552Z,6.50
2018-05-11T15:57:48.726Z,7.20
2018-05-11T16:00:16.138Z,7.80
2018-05-11T16:02:43.578Z,7.15
2018-05-11T16:05:10.989Z,6.82
2018-05-11T16:07:38.504Z,6.75
2018-05-11T16:10:05.982Z,7.18
2018-05-11T16:12:33.468Z,6.87
2018-05-11T16:15:00.924Z,7.32
2018-05-11T16:17:28.397Z,8.15
2018-05-11T16:19:55.804Z,6.00
2018-05-11T16:22:23.230Z,6.37
2018-05-11T16:24:50.648Z,6.60
2018-05-11T16:27:18.069Z,6.80
2018-05-11T16:29:45.477Z,6.40
2018-05-11T16:32:12.893Z,6.05
2018-05-11T16:34:41.069Z,6.20
2018-05-11T16:37:09.274Z,6.00
2018-05-11T16:39:37.488Z,5.93
2018-05-11T16:42:04.945Z,7.15
2018-05-11T16:44:33.112Z,6.20
2018-05-11T16:47:01.298Z,6.72
2018-05-11T16:49:29.473Z,6.28
2018-05-11T16:51:57.661Z,6.50
2018-05-11T16:54:25.837Z,6.15
2018-05-11T16:56:53.267Z,5.80
2018-05-11T16:59:20.669Z,5.95
2018-05-11T17:01:48.181Z,5.65
2018-05-11T17:04:15.599Z,5.50
2018-05-11T17:06:43.017Z,5.60
2018-05-11T17:09:10.465Z,6.20
2018-05-11T17:11:38.657Z,5.90
2018-05-11T17:14:06.840Z,6.35
2018-05-11T17:16:35.024Z,6.78
2018-05-11T17:19:03.201Z,5.75
2018-05-11T17:21:30.613Z,5.90
2018-05-11T17:23:58.025Z,5.55
2018-05-11T17:26:25.445Z,6.90
2018-05-11T17:28:52.857Z,5.60
2018-05-11T17:31:20.279Z,5.85
2018-05-11T17:33:47.760Z,6.28
2018-05-11T17:36:15.177Z,6.00
2018-05-11T17:38:42.593Z,6.72
2018-05-11T17:41:10.010Z,6.65
2018-05-11T17:43:37.537Z,6.37
2018-05-11T17:46:05.701Z,5.75
2018-05-11T17:48:33.926Z,5.53
2018-05-11T17:51:02.097Z,5.90
2018-05-11T17:53:29.508Z,5.80
2018-05-11T17:55:56.920Z,7.72
2018-05-11T17:58:25.113Z,7.07
2018-05-11T18:00:52.529Z,7.28
2018-05-11T18:03:19.958Z,6.70
2018-05-11T18:05:47.371Z,6.30
2018-05-11T18:08:14.789Z,7.40
2018-05-11T18:10:42.225Z,7.50
2018-05-11T18:13:09.641Z,6.80
2018-05-11T18:15:37.097Z,7.28
2018-05-11T18:18:04.573Z,7.65
2018-05-11T18:20:32.046Z,7.55
2018-05-11T18:22:59.465Z,6.85
2018-05-11T18:25:26.887Z,7.30
2018-05-11T18:27:54.354Z,7.85
2018-05-11T18:30:21.760Z,8.02
2018-05-11T18:32:49.176Z,7.60
2018-05-11T18:35:17.381Z,8.10
2018-05-11T18:37:44.801Z,7.53
2018-05-11T18:40:12.244Z,8.27
2018-05-11T18:42:39.676Z,7.72
2018-05-11T18:45:07.189Z,8.27
2018-05-11T18:47:34.606Z,7.75
2018-05-11T18:50:02.790Z,8.30
2018-05-11T18:52:30.968Z,8.82
2018-05-11T18:54:59.146Z,8.10
2018-05-11T18:57:26.577Z,8.98
2018-05-11T18:59:53.990Z,8.07
2018-05-11T19:02:21.408Z,8.93
2018-05-11T19:04:48.869Z,8.20
2018-05-11T19:07:16.280Z,9.00
2018-05-11T19:09:43.693Z,9.02
2018-05-11T19:12:11.118Z,9.63
2018-05-11T19:14:38.543Z,8.18
2018-05-11T19:17:06.016Z,8.65
2018-05-11T19:19:34.185Z,9.13
2018-05-11T19:22:02.369Z,9.32
2018-05-11T19:24:30.545Z,8.75
2018-05-11T19:26:58.765Z,9.00
2018-05-11T19:29:26.177Z,9.27
2018-05-11T19:31:53.697Z,9.05
2018-05-11T19:34:21.170Z,8.77
2018-05-11T19:36:48.637Z,9.88
2018-05-11T19:39:16.105Z,8.60
2018-05-11T19:41:43.529Z,9.27
2018-05-11T19:44:10.942Z,8.95
2018-05-11T19:46:38.363Z,9.20
2018-05-11T19:49:05.790Z,8.73
2018-05-11T19:51:33.209Z,8.27
2018-05-11T19:54:00.633Z,9.35
2018-05-11T19:56:28.048Z,9.63
2018-05-11T19:58:55.561Z,10.68
2018-05-11T20:01:22.973Z,8.32
2018-05-11T20:03:50.398Z,8.90
2018-05-11T20:06:17.813Z,8.80
2018-05-11T20:08:45.258Z,8.70
2018-05-11T20:11:12.684Z,9.30
2018-05-11T20:13:40.873Z,8.82
2018-05-11T20:16:09.058Z,10.32
2018-05-11T20:18:36.559Z,9.38
2018-05-11T20:21:04.742Z,8.75
2018-05-11T20:23:32.161Z,9.30
2018-05-11T20:25:59.581Z,10.30
2018-05-11T20:28:27.051Z,10.02
2018-05-11T20:30:54.528Z,9.60
2018-05-11T20:33:21.942Z,9.18
2018-05-11T20:35:49.353Z,9.05
2018-05-11T20:38:16.837Z,8.68
2018-05-11T20:40:44.241Z,8.77
2018-05-11T20:43:11.725Z,9.57
2018-05-11T20:45:39.140Z,10.45
2018-05-11T20:48:06.610Z,10.30
2018-05-11T20:50:34.030Z,9.30
2018-05-11T20:53:04.569Z,9.50
2018-05-11T20:55:31.990Z,11.57
2018-05-11T20:57:59.425Z,9.88
2018-05-11T21:00:27.610Z,9.98
2018-05-11T21:02:55.797Z,10.20
2018-05-11T21:05:23.986Z,10.73
2018-05-11T21:07:52.169Z,10.32
2018-05-11T21:10:20.367Z,10.73
2018-05-11T21:12:49.429Z,10.45
2018-05-11T21:15:16.865Z,11.00
2018-05-11T21:17:44.285Z,10.07
2018-05-11T21:20:11.707Z,10.43
2018-05-11T21:22:39.112Z,9.55
2018-05-11T21:25:06.537Z,10.50
2018-05-11T21:27:34.713Z,9.88
2018-05-11T21:30:02.194Z,10.93
2018-05-11T21:32:29.617Z,10.48
2018-05-11T21:34:57.045Z,10.00
2018-05-11T21:37:24.535Z,9.70
2018-05-11T21:39:51.937Z,9.18
2018-05-11T21:42:19.362Z,8.50
2018-05-11T21:44:46.787Z,11.23
2018-05-11T21:47:14.973Z,10.05
2018-05-11T21:49:43.174Z,10.48
2018-05-11T21:52:10.657Z,10.15
2018-05-11T21:54:38.082Z,11.05
2018-05-11T21:57:05.515Z,11.27
2018-05-11T21:59:32.924Z,9.15
2018-05-11T22:02:00.349Z,10.45
2018-05-11T22:04:27.765Z,9.55
2018-05-11T22:06:55.188Z,10.60
2018-05-11T22:09:22.649Z,10.25
2018-05-11T22:11:50.074Z,9.48
2018-05-11T22:14:17.498Z,10.75
2018-05-11T22:16:44.918Z,9.65
2018-05-11T22:19:12.417Z,9.32
2018-05-11T22:21:39.842Z,9.68
2018-05-11T22:24:07.262Z,10.15
2018-05-11T22:26:34.694Z,10.05
2018-05-11T22:29:02.105Z,10.57
2018-05-11T22:31:29.671Z,10.23
2018-05-11T22:33:57.093Z,11.23
2018-05-11T22:36:24.632Z,11.32
2018-05-11T22:38:52.061Z,12.18
2018-05-11T22:41:20.241Z,12.43
2018-05-11T22:43:48.447Z,12.00
2018-05-11T22:46:16.620Z,11.05
2018-05-11T22:48:44.813Z,12.73
2018-05-11T22:51:13.006Z,12.45
2018-05-11T22:53:41.193Z,11.02
2018-05-11T22:56:08.673Z,11.98
2018-05-11T22:58:36.098Z,11.50
2018-05-11T23:01:03.517Z,11.45
2018-05-11T23:03:30.937Z,11.00
2018-05-11T23:05:58.351Z,12.30
2018-05-11T23:08:25.772Z,13.30
2018-05-11T23:10:53.288Z,13.20
2018-05-11T23:13:20.723Z,12.70
2018-05-11T23:15:48.142Z,11.57
2018-05-11T23:18:15.558Z,12.13
2018-05-11T23:20:42.974Z,10.55
2018-05-11T23:23:10.434Z,11.40
2018-05-11T23:25:37.862Z,10.48
2018-05-11T23:28:05.277Z,13.10
2018-05-11T23:30:32.703Z,12.40
2018-05-11T23:33:00.219Z,11.50
2018-05-11T23:35:27.640Z,10.73
2018-05-11T23:37:55.060Z,11.80
2018-05-11T23:40:22.526Z,10.93
2018-05-11T23:42:49.945Z,12.23
2018-05-11T23:45:18.141Z,11.65
2018-05-11T23:47:45.561Z,12.93
2018-05-11T23:50:12.982Z,11.85
2018-05-11T23:52:40.401Z,12.37
2018-05-11T23:55:07.832Z,11.70
2018-05-11T23:57:36.015Z,11.05
